sensor_id;sensor_type;location;lat;lon;timestamp;P1;durP1;ratioP1;P2;durP2;ratioP2
14326;SDS011;7247;53.330;-1.180;2023-04-08T00:00:14;13.20;;;9.88;;
14326;SDS011;7247;53.330;-1.180;2023-04-08T00:02:40;11.75;;;9.35;;
14326;SDS011;7247;53.330;-1.180;2023-04-08T00:05:07;10.90;;;9.30;;
14326;SDS011;7247;53.330;-1.180;2023-04-08T00:07:33;9.98;;;9.00;;
14326;SDS011;7247;53.330;-1.180;2023-04-08T00:10:00;10.73;;;9.17;;
14326;SDS011;7247;53.330;-1.180;2023-04-08T00:12:26;12.50;;;9.25;;
14326;SDS011;7247;53.330;-1.180;2023-04-08T00:14:54;12.88;;;9.30;;
14326;SDS011;7247;53.330;-1.180;2023-04-08T00:17:20;12.50;;;8.55;;
14326;SDS011;7247;53.330;-1.180;2023-04-08T00:19:47;10.88;;;9.00;;
14326;SDS011;7247;53.330;-1.180;2023-04-08T00:22:13;9.80;;;8.32;;
14326;SDS011;7247;53.330;-1.180;2023-04-08T00:24:40;11.33;;;9.33;;
14326;SDS011;7247;53.330;-1.180;2023-04-08T00:27:06;13.38;;;9.50;;
14326;SDS011;7247;53.330;-1.180;2023-04-08T00:29:32;12.15;;;9.40;;
14326;SDS011;7247;53.330;-1.180;2023-04-08T00:32:00;13.48;;;10.07;;
14326;SDS011;7247;53.330;-1.180;2023-04-08T00:34:27;13.68;;;10.20;;
14326;SDS011;7247;53.330;-1.180;2023-04-08T00:36:53;14.70;;;10.77;;
14326;SDS011;7247;53.330;-1.180;2023-04-08T00:39:20;13.98;;;10.30;;
14326;SDS011;7247;53.330;-1.180;2023-04-08T00:41:46;12.48;;;9.95;;
14326;SDS011;7247;53.330;-1.180;2023-04-08T00:44:13;11.83;;;10.37;;
14326;SDS011;7247;53.330;-1.180;2023-04-08T00:46:39;14.88;;;10.40;;
14326;SDS011;7247;53.330;-1.180;2023-04-08T00:49:07;16.08;;;10.50;;
14326;SDS011;7247;53.330;-1.180;2023-04-08T00:51:34;12.65;;;9.93;;
14326;SDS011;7247;53.330;-1.180;2023-04-08T00:54:01;13.27;;;10.02;;
14326;SDS011;7247;53.330;-1.180;2023-04-08T00:56:28;16.33;;;9.93;;
14326;SDS011;7247;53.330;-1.180;2023-04-08T00:58:56;16.37;;;9.67;;
14326;SDS011;7247;53.330;-1.180;2023-04-08T01:01:24;15.17;;;9.90;;
14326;SDS011;7247;53.330;-1.180;2023-04-08T01:03:54;16.08;;;10.10;;
14326;SDS011;7247;53.330;-1.180;2023-04-08T01:06:25;15.05;;;10.48;;
14326;SDS011;7247;53.330;-1.180;2023-04-08T01:08:55;13.93;;;9.82;;
14326;SDS011;7247;53.330;-1.180;2023-04-08T01:11:23;13.43;;;9.70;;
14326;SDS011;7247;53.330;-1.180;2023-04-08T01:13:51;17.42;;;11.40;;
14326;SDS011;7247;53.330;-1.180;2023-04-08T01:16:20;17.35;;;11.88;;
14326;SDS011;7247;53.330;-1.180;2023-04-08T01:18:47;13.15;;;10.43;;
14326;SDS011;7247;53.330;-1.180;2023-04-08T01:21:15;15.48;;;11.35;;
14326;SDS011;7247;53.330;-1.180;2023-04-08T01:23:45;18.13;;;12.52;;
14326;SDS011;7247;53.330;-1.180;2023-04-08T01:26:21;17.50;;;12.10;;
14326;SDS011;7247;53.330;-1.180;2023-04-08T01:28:48;16.25;;;11.55;;
14326;SDS011;7247;53.330;-1.180;2023-04-08T01:31:16;18.23;;;12.53;;
14326;SDS011;7247;53.330;-1.180;2023-04-08T01:33:43;16.77;;;12.80;;
14326;SDS011;7247;53.330;-1.180;2023-04-08T01:36:10;19.70;;;12.02;;
14326;SDS011;7247;53.330;-1.180;2023-04-08T01:38:37;17.90;;;12.05;;
14326;SDS011;7247;53.330;-1.180;2023-04-08T01:41:03;16.00;;;11.80;;
14326;SDS011;7247;53.330;-1.180;2023-04-08T01:43:32;19.08;;;13.00;;
14326;SDS011;7247;53.330;-1.180;2023-04-08T01:45:59;18.33;;;14.10;;
14326;SDS011;7247;53.330;-1.180;2023-04-08T01:48:26;16.80;;;12.10;;
14326;SDS011;7247;53.330;-1.180;2023-04-08T01:50:53;14.38;;;9.98;;
14326;SDS011;7247;53.330;-1.180;2023-04-08T01:53:20;14.10;;;10.77;;
14326;SDS011;7247;53.330;-1.180;2023-04-08T01:55:48;12.53;;;9.83;;
14326;SDS011;7247;53.330;-1.180;2023-04-08T01:58:17;11.50;;;9.43;;
14326;SDS011;7247;53.330;-1.180;2023-04-08T02:00:46;14.50;;;10.23;;
14326;SDS011;7247;53.330;-1.180;2023-04-08T02:03:13;12.93;;;10.07;;
14326;SDS011;7247;53.330;-1.180;2023-04-08T02:05:41;11.18;;;9.13;;
14326;SDS011;7247;53.330;-1.180;2023-04-08T02:08:08;11.23;;;8.80;;
14326;SDS011;7247;53.330;-1.180;2023-04-08T02:10:34;12.20;;;9.15;;
14326;SDS011;7247;53.330;-1.180;2023-04-08T02:13:01;11.73;;;9.30;;
14326;SDS011;7247;53.330;-1.180;2023-04-08T02:15:27;10.55;;;8.80;;
14326;SDS011;7247;53.330;-1.180;2023-04-08T02:17:57;11.82;;;8.10;;
14326;SDS011;7247;53.330;-1.180;2023-04-08T02:20:26;14.07;;;11.03;;
14326;SDS011;7247;53.330;-1.180;2023-04-08T02:22:56;13.45;;;10.48;;
14326;SDS011;7247;53.330;-1.180;2023-04-08T02:25:24;12.98;;;9.77;;
14326;SDS011;7247;53.330;-1.180;2023-04-08T02:27:51;10.73;;;8.30;;
14326;SDS011;7247;53.330;-1.180;2023-04-08T02:30:18;12.80;;;10.02;;
14326;SDS011;7247;53.330;-1.180;2023-04-08T02:32:45;13.63;;;10.10;;
14326;SDS011;7247;53.330;-1.180;2023-04-08T02:35:13;8.80;;;7.70;;
14326;SDS011;7247;53.330;-1.180;2023-04-08T02:37:41;11.63;;;7.60;;
14326;SDS011;7247;53.330;-1.180;2023-04-08T02:40:21;11.52;;;9.65;;
14326;SDS011;7247;53.330;-1.180;2023-04-08T02:42:47;13.00;;;10.13;;
14326;SDS011;7247;53.330;-1.180;2023-04-08T02:45:14;10.25;;;8.60;;
14326;SDS011;7247;53.330;-1.180;2023-04-08T02:47:40;11.85;;;10.07;;
14326;SDS011;7247;53.330;-1.180;2023-04-08T02:50:07;14.63;;;12.32;;
14326;SDS011;7247;53.330;-1.180;2023-04-08T02:52:35;18.23;;;13.55;;
14326;SDS011;7247;53.330;-1.180;2023-04-08T02:55:01;16.63;;;12.57;;
14326;SDS011;7247;53.330;-1.180;2023-04-08T02:57:30;16.77;;;12.20;;
14326;SDS011;7247;53.330;-1.180;2023-04-08T02:59:57;18.35;;;12.80;;
14326;SDS011;7247;53.330;-1.180;2023-04-08T03:02:23;19.88;;;14.50;;
14326;SDS011;7247;53.330;-1.180;2023-04-08T03:04:49;20.77;;;13.90;;
14326;SDS011;7247;53.330;-1.180;2023-04-08T03:07:16;17.15;;;13.18;;
14326;SDS011;7247;53.330;-1.180;2023-04-08T03:09:44;18.70;;;13.40;;
14326;SDS011;7247;53.330;-1.180;2023-04-08T03:12:10;17.83;;;13.45;;
14326;SDS011;7247;53.330;-1.180;2023-04-08T03:14:36;21.30;;;14.57;;
14326;SDS011;7247;53.330;-1.180;2023-04-08T03:17:03;19.98;;;14.90;;
14326;SDS011;7247;53.330;-1.180;2023-04-08T03:19:29;16.10;;;13.00;;
14326;SDS011;7247;53.330;-1.180;2023-04-08T03:21:56;20.73;;;14.00;;
14326;SDS011;7247;53.330;-1.180;2023-04-08T03:24:22;17.40;;;13.00;;
14326;SDS011;7247;53.330;-1.180;2023-04-08T03:26:50;17.52;;;12.30;;
14326;SDS011;7247;53.330;-1.180;2023-04-08T03:29:16;17.00;;;12.30;;
14326;SDS011;7247;53.330;-1.180;2023-04-08T03:31:42;20.08;;;14.70;;
14326;SDS011;7247;53.330;-1.180;2023-04-08T03:34:09;14.55;;;11.68;;
14326;SDS011;7247;53.330;-1.180;2023-04-08T03:36:35;14.13;;;10.40;;
14326;SDS011;7247;53.330;-1.180;2023-04-08T03:39:02;11.75;;;9.98;;
14326;SDS011;7247;53.330;-1.180;2023-04-08T03:41:28;14.00;;;11.23;;
14326;SDS011;7247;53.330;-1.180;2023-04-08T03:43:56;14.97;;;11.47;;
14326;SDS011;7247;53.330;-1.180;2023-04-08T03:46:23;14.65;;;10.50;;
14326;SDS011;7247;53.330;-1.180;2023-04-08T03:48:49;13.03;;;10.30;;
14326;SDS011;7247;53.330;-1.180;2023-04-08T03:51:15;16.70;;;11.40;;
14326;SDS011;7247;53.330;-1.180;2023-04-08T03:53:42;12.65;;;9.50;;
14326;SDS011;7247;53.330;-1.180;2023-04-08T03:56:08;13.43;;;9.50;;
14326;SDS011;7247;53.330;-1.180;2023-04-08T03:58:35;14.82;;;10.25;;
14326;SDS011;7247;53.330;-1.180;2023-04-08T04:01:02;14.33;;;11.60;;
14326;SDS011;7247;53.330;-1.180;2023-04-08T04:03:29;16.33;;;12.50;;
14326;SDS011;7247;53.330;-1.180;2023-04-08T04:05:55;16.45;;;13.65;;
14326;SDS011;7247;53.330;-1.180;2023-04-08T04:08:22;25.05;;;17.10;;
14326;SDS011;7247;53.330;-1.180;2023-04-08T04:10:48;21.85;;;14.95;;
14326;SDS011;7247;53.330;-1.180;2023-04-08T04:13:15;26.65;;;17.92;;
14326;SDS011;7247;53.330;-1.180;2023-04-08T04:15:43;25.13;;;17.73;;
14326;SDS011;7247;53.330;-1.180;2023-04-08T04:18:11;22.70;;;16.48;;
14326;SDS011;7247;53.330;-1.180;2023-04-08T04:20:38;49.75;;;19.13;;
14326;SDS011;7247;53.330;-1.180;2023-04-08T04:23:04;31.47;;;20.50;;
14326;SDS011;7247;53.330;-1.180;2023-04-08T04:25:31;37.38;;;25.83;;
14326;SDS011;7247;53.330;-1.180;2023-04-08T04:27:57;35.55;;;26.17;;
14326;SDS011;7247;53.330;-1.180;2023-04-08T04:30:24;30.92;;;22.65;;
14326;SDS011;7247;53.330;-1.180;2023-04-08T04:32:51;27.17;;;21.27;;
14326;SDS011;7247;53.330;-1.180;2023-04-08T04:35:18;26.38;;;20.63;;
14326;SDS011;7247;53.330;-1.180;2023-04-08T04:37:45;26.73;;;20.85;;
14326;SDS011;7247;53.330;-1.180;2023-04-08T04:40:14;27.38;;;21.17;;
14326;SDS011;7247;53.330;-1.180;2023-04-08T04:42:40;30.25;;;22.25;;
14326;SDS011;7247;53.330;-1.180;2023-04-08T04:45:07;35.03;;;25.65;;
14326;SDS011;7247;53.330;-1.180;2023-04-08T04:47:34;37.45;;;26.77;;
14326;SDS011;7247;53.330;-1.180;2023-04-08T04:50:01;37.40;;;27.33;;
14326;SDS011;7247;53.330;-1.180;2023-04-08T04:52:28;32.58;;;25.48;;
14326;SDS011;7247;53.330;-1.180;2023-04-08T04:54:55;41.10;;;29.95;;
14326;SDS011;7247;53.330;-1.180;2023-04-08T04:57:22;37.43;;;27.97;;
14326;SDS011;7247;53.330;-1.180;2023-04-08T04:59:48;36.50;;;26.95;;
14326;SDS011;7247;53.330;-1.180;2023-04-08T05:02:15;39.13;;;30.02;;
14326;SDS011;7247;53.330;-1.180;2023-04-08T05:04:41;88.28;;;40.78;;
14326;SDS011;7247;53.330;-1.180;2023-04-08T05:07:07;61.90;;;39.60;;
14326;SDS011;7247;53.330;-1.180;2023-04-08T05:09:35;62.70;;;40.53;;
14326;SDS011;7247;53.330;-1.180;2023-04-08T05:12:02;68.45;;;40.25;;
14326;SDS011;7247;53.330;-1.180;2023-04-08T05:14:28;57.77;;;39.27;;
14326;SDS011;7247;53.330;-1.180;2023-04-08T05:16:54;45.22;;;32.90;;
14326;SDS011;7247;53.330;-1.180;2023-04-08T05:19:21;59.20;;;35.88;;
14326;SDS011;7247;53.330;-1.180;2023-04-08T05:21:47;46.35;;;31.80;;
14326;SDS011;7247;53.330;-1.180;2023-04-08T05:24:14;50.50;;;33.90;;
14326;SDS011;7247;53.330;-1.180;2023-04-08T05:26:42;51.70;;;31.98;;
14326;SDS011;7247;53.330;-1.180;2023-04-08T05:29:08;48.53;;;30.27;;
14326;SDS011;7247;53.330;-1.180;2023-04-08T05:31:35;95.27;;;34.57;;
14326;SDS011;7247;53.330;-1.180;2023-04-08T05:34:01;140.15;;;40.47;;
14326;SDS011;7247;53.330;-1.180;2023-04-08T05:36:28;139.20;;;44.63;;
14326;SDS011;7247;53.330;-1.180;2023-04-08T05:38:55;112.35;;;41.63;;
14326;SDS011;7247;53.330;-1.180;2023-04-08T05:41:22;233.80;;;51.45;;
14326;SDS011;7247;53.330;-1.180;2023-04-08T05:43:50;240.65;;;51.22;;
14326;SDS011;7247;53.330;-1.180;2023-04-08T05:46:16;269.10;;;52.90;;
14326;SDS011;7247;53.330;-1.180;2023-04-08T05:48:42;178.07;;;46.47;;
14326;SDS011;7247;53.330;-1.180;2023-04-08T05:51:12;265.87;;;56.70;;
14326;SDS011;7247;53.330;-1.180;2023-04-08T05:53:38;386.77;;;65.25;;
14326;SDS011;7247;53.330;-1.180;2023-04-08T05:56:04;329.43;;;65.43;;
14326;SDS011;7247;53.330;-1.180;2023-04-08T05:58:31;146.25;;;45.83;;
14326;SDS011;7247;53.330;-1.180;2023-04-08T06:00:59;126.05;;;39.67;;
14326;SDS011;7247;53.330;-1.180;2023-04-08T06:03:25;97.80;;;29.67;;
14326;SDS011;7247;53.330;-1.180;2023-04-08T06:05:51;178.30;;;38.40;;
14326;SDS011;7247;53.330;-1.180;2023-04-08T06:08:18;64.47;;;23.10;;
14326;SDS011;7247;53.330;-1.180;2023-04-08T06:10:47;46.28;;;21.90;;
14326;SDS011;7247;53.330;-1.180;2023-04-08T06:13:14;53.83;;;20.00;;
14326;SDS011;7247;53.330;-1.180;2023-04-08T06:15:41;77.90;;;19.13;;
14326;SDS011;7247;53.330;-1.180;2023-04-08T06:18:08;58.95;;;20.45;;
14326;SDS011;7247;53.330;-1.180;2023-04-08T06:20:35;80.55;;;19.88;;
14326;SDS011;7247;53.330;-1.180;2023-04-08T06:23:03;69.10;;;17.58;;
14326;SDS011;7247;53.330;-1.180;2023-04-08T06:25:29;79.22;;;17.25;;
14326;SDS011;7247;53.330;-1.180;2023-04-08T06:27:56;72.53;;;15.77;;
14326;SDS011;7247;53.330;-1.180;2023-04-08T06:30:22;74.10;;;15.88;;
14326;SDS011;7247;53.330;-1.180;2023-04-08T06:32:49;40.72;;;14.68;;
14326;SDS011;7247;53.330;-1.180;2023-04-08T06:35:16;70.53;;;14.38;;
14326;SDS011;7247;53.330;-1.180;2023-04-08T06:37:43;93.88;;;15.20;;
14326;SDS011;7247;53.330;-1.180;2023-04-08T06:40:09;69.72;;;13.65;;
14326;SDS011;7247;53.330;-1.180;2023-04-08T06:42:36;89.47;;;15.50;;
14326;SDS011;7247;53.330;-1.180;2023-04-08T06:45:05;61.10;;;15.43;;
14326;SDS011;7247;53.330;-1.180;2023-04-08T06:47:31;130.63;;;21.47;;
14326;SDS011;7247;53.330;-1.180;2023-04-08T06:49:58;61.53;;;14.52;;
14326;SDS011;7247;53.330;-1.180;2023-04-08T06:52:25;95.78;;;16.25;;
14326;SDS011;7247;53.330;-1.180;2023-04-08T06:54:52;56.53;;;15.07;;
14326;SDS011;7247;53.330;-1.180;2023-04-08T06:57:18;82.82;;;13.02;;
14326;SDS011;7247;53.330;-1.180;2023-04-08T06:59:45;62.80;;;11.87;;
14326;SDS011;7247;53.330;-1.180;2023-04-08T07:02:11;78.20;;;13.80;;
14326;SDS011;7247;53.330;-1.180;2023-04-08T07:04:38;62.87;;;12.70;;
14326;SDS011;7247;53.330;-1.180;2023-04-08T07:07:04;71.13;;;13.55;;
14326;SDS011;7247;53.330;-1.180;2023-04-08T07:09:32;78.68;;;16.70;;
14326;SDS011;7247;53.330;-1.180;2023-04-08T07:11:59;89.50;;;14.95;;
14326;SDS011;7247;53.330;-1.180;2023-04-08T07:14:25;73.55;;;15.55;;
14326;SDS011;7247;53.330;-1.180;2023-04-08T07:16:52;89.82;;;15.93;;
14326;SDS011;7247;53.330;-1.180;2023-04-08T07:19:19;45.78;;;13.50;;
14326;SDS011;7247;53.330;-1.180;2023-04-08T07:21:45;61.55;;;12.25;;
14326;SDS011;7247;53.330;-1.180;2023-04-08T07:24:12;21.53;;;8.43;;
14326;SDS011;7247;53.330;-1.180;2023-04-08T07:26:39;71.13;;;9.03;;
14326;SDS011;7247;53.330;-1.180;2023-04-08T07:29:06;111.07;;;11.40;;
14326;SDS011;7247;53.330;-1.180;2023-04-08T07:31:32;123.53;;;11.20;;
14326;SDS011;7247;53.330;-1.180;2023-04-08T07:33:59;68.67;;;8.53;;
14326;SDS011;7247;53.330;-1.180;2023-04-08T07:36:25;54.57;;;8.17;;
14326;SDS011;7247;53.330;-1.180;2023-04-08T07:38:52;54.47;;;7.50;;
14326;SDS011;7247;53.330;-1.180;2023-04-08T07:41:18;39.17;;;7.57;;
14326;SDS011;7247;53.330;-1.180;2023-04-08T07:43:46;41.67;;;7.33;;
14326;SDS011;7247;53.330;-1.180;2023-04-08T07:46:12;35.87;;;8.00;;
14326;SDS011;7247;53.330;-1.180;2023-04-08T07:48:39;43.83;;;7.90;;
14326;SDS011;7247;53.330;-1.180;2023-04-08T07:51:06;46.67;;;7.97;;
14326;SDS011;7247;53.330;-1.180;2023-04-08T07:53:33;46.20;;;7.90;;
14326;SDS011;7247;53.330;-1.180;2023-04-08T07:56:00;64.33;;;8.93;;
14326;SDS011;7247;53.330;-1.180;2023-04-08T07:58:28;37.87;;;7.80;;
14326;SDS011;7247;53.330;-1.180;2023-04-08T08:00:57;18.83;;;7.87;;
14326;SDS011;7247;53.330;-1.180;2023-04-08T08:03:23;12.87;;;8.33;;
14326;SDS011;7247;53.330;-1.180;2023-04-08T08:05:50;22.97;;;8.40;;
14326;SDS011;7247;53.330;-1.180;2023-04-08T08:08:16;19.37;;;8.60;;
14326;SDS011;7247;53.330;-1.180;2023-04-08T08:10:43;17.20;;;8.70;;
14326;SDS011;7247;53.330;-1.180;2023-04-08T08:13:09;29.93;;;8.23;;
14326;SDS011;7247;53.330;-1.180;2023-04-08T08:15:36;23.77;;;8.33;;
14326;SDS011;7247;53.330;-1.180;2023-04-08T08:18:04;13.10;;;8.23;;
14326;SDS011;7247;53.330;-1.180;2023-04-08T08:20:30;12.63;;;9.43;;
14326;SDS011;7247;53.330;-1.180;2023-04-08T08:22:57;15.17;;;8.73;;
14326;SDS011;7247;53.330;-1.180;2023-04-08T08:25:23;13.20;;;9.20;;
14326;SDS011;7247;53.330;-1.180;2023-04-08T08:27:50;14.60;;;8.83;;
14326;SDS011;7247;53.330;-1.180;2023-04-08T08:30:16;12.77;;;9.30;;
14326;SDS011;7247;53.330;-1.180;2023-04-08T08:32:45;16.30;;;9.83;;
14326;SDS011;7247;53.330;-1.180;2023-04-08T08:35:12;12.73;;;9.20;;
14326;SDS011;7247;53.330;-1.180;2023-04-08T08:37:39;13.07;;;9.73;;
14326;SDS011;7247;53.330;-1.180;2023-04-08T08:40:06;14.33;;;10.90;;
14326;SDS011;7247;53.330;-1.180;2023-04-08T08:42:33;11.20;;;10.00;;
14326;SDS011;7247;53.330;-1.180;2023-04-08T08:45:00;12.90;;;9.67;;
14326;SDS011;7247;53.330;-1.180;2023-04-08T08:47:27;11.87;;;9.43;;
14326;SDS011;7247;53.330;-1.180;2023-04-08T08:49:53;13.03;;;9.63;;
14326;SDS011;7247;53.330;-1.180;2023-04-08T08:52:21;12.20;;;9.57;;
14326;SDS011;7247;53.330;-1.180;2023-04-08T08:54:48;11.27;;;9.67;;
14326;SDS011;7247;53.330;-1.180;2023-04-08T08:57:21;13.57;;;9.57;;
14326;SDS011;7247;53.330;-1.180;2023-04-08T08:59:47;13.23;;;9.80;;
14326;SDS011;7247;53.330;-1.180;2023-04-08T09:02:24;13.63;;;9.87;;
14326;SDS011;7247;53.330;-1.180;2023-04-08T09:04:55;15.83;;;10.23;;
14326;SDS011;7247;53.330;-1.180;2023-04-08T09:07:23;13.20;;;10.13;;
14326;SDS011;7247;53.330;-1.180;2023-04-08T09:09:50;12.77;;;10.27;;
14326;SDS011;7247;53.330;-1.180;2023-04-08T09:12:17;14.17;;;10.37;;
14326;SDS011;7247;53.330;-1.180;2023-04-08T09:14:44;14.23;;;11.30;;
14326;SDS011;7247;53.330;-1.180;2023-04-08T09:17:10;13.60;;;10.97;;
14326;SDS011;7247;53.330;-1.180;2023-04-08T09:19:37;14.30;;;11.10;;
14326;SDS011;7247;53.330;-1.180;2023-04-08T09:22:04;13.87;;;10.93;;
14326;SDS011;7247;53.330;-1.180;2023-04-08T09:24:32;17.77;;;11.90;;
14326;SDS011;7247;53.330;-1.180;2023-04-08T09:26:58;16.83;;;11.33;;
14326;SDS011;7247;53.330;-1.180;2023-04-08T09:29:25;14.93;;;11.70;;
14326;SDS011;7247;53.330;-1.180;2023-04-08T09:31:52;16.60;;;11.53;;
14326;SDS011;7247;53.330;-1.180;2023-04-08T09:34:19;14.20;;;10.63;;
14326;SDS011;7247;53.330;-1.180;2023-04-08T09:36:47;11.67;;;10.07;;
14326;SDS011;7247;53.330;-1.180;2023-04-08T09:39:13;13.10;;;9.63;;
14326;SDS011;7247;53.330;-1.180;2023-04-08T09:41:41;12.80;;;9.07;;
14326;SDS011;7247;53.330;-1.180;2023-04-08T09:44:09;10.67;;;9.03;;
14326;SDS011;7247;53.330;-1.180;2023-04-08T09:46:38;10.60;;;9.37;;
14326;SDS011;7247;53.330;-1.180;2023-04-08T09:49:05;12.43;;;9.27;;
14326;SDS011;7247;53.330;-1.180;2023-04-08T09:51:35;10.57;;;9.20;;
14326;SDS011;7247;53.330;-1.180;2023-04-08T09:54:05;9.73;;;8.67;;
14326;SDS011;7247;53.330;-1.180;2023-04-08T09:56:37;10.95;;;9.95;;
14326;SDS011;7247;53.330;-1.180;2023-04-08T09:59:08;10.80;;;9.70;;
14326;SDS011;7247;53.330;-1.180;2023-04-08T10:01:36;11.45;;;10.10;;
14326;SDS011;7247;53.330;-1.180;2023-04-08T10:04:03;10.80;;;9.80;;
14326;SDS011;7247;53.330;-1.180;2023-04-08T10:06:30;11.75;;;10.65;;
14326;SDS011;7247;53.330;-1.180;2023-04-08T10:08:58;10.85;;;9.75;;
14326;SDS011;7247;53.330;-1.180;2023-04-08T10:11:26;11.60;;;10.40;;
14326;SDS011;7247;53.330;-1.180;2023-04-08T10:13:53;11.80;;;10.60;;
14326;SDS011;7247;53.330;-1.180;2023-04-08T10:16:22;11.45;;;10.30;;
14326;SDS011;7247;53.330;-1.180;2023-04-08T10:18:49;11.23;;;10.10;;
14326;SDS011;7247;53.330;-1.180;2023-04-08T10:24:01;10.27;;;9.27;;
14326;SDS011;7247;53.330;-1.180;2023-04-08T10:26:31;10.55;;;9.45;;
14326;SDS011;7247;53.330;-1.180;2023-04-08T10:31:45;10.00;;;9.00;;
14326;SDS011;7247;53.330;-1.180;2023-04-08T10:34:14;9.50;;;8.57;;
14326;SDS011;7247;53.330;-1.180;2023-04-08T10:36:41;10.13;;;8.68;;
14326;SDS011;7247;53.330;-1.180;2023-04-08T10:39:08;10.20;;;9.20;;
14326;SDS011;7247;53.330;-1.180;2023-04-08T10:41:34;10.57;;;9.48;;
14326;SDS011;7247;53.330;-1.180;2023-04-08T10:44:02;9.80;;;8.90;;
14326;SDS011;7247;53.330;-1.180;2023-04-08T10:46:29;10.02;;;9.13;;
14326;SDS011;7247;53.330;-1.180;2023-04-08T10:49:04;10.13;;;9.17;;
14326;SDS011;7247;53.330;-1.180;2023-04-08T10:51:31;9.45;;;8.63;;
14326;SDS011;7247;53.330;-1.180;2023-04-08T10:54:04;9.50;;;8.60;;
14326;SDS011;7247;53.330;-1.180;2023-04-08T10:56:31;10.55;;;9.50;;
14326;SDS011;7247;53.330;-1.180;2023-04-08T10:58:58;9.50;;;8.70;;
14326;SDS011;7247;53.330;-1.180;2023-04-08T11:01:25;10.02;;;9.02;;
14326;SDS011;7247;53.330;-1.180;2023-04-08T11:03:51;9.20;;;8.40;;
14326;SDS011;7247;53.330;-1.180;2023-04-08T11:06:19;10.15;;;9.25;;
14326;SDS011;7247;53.330;-1.180;2023-04-08T11:08:46;9.70;;;8.73;;
14326;SDS011;7247;53.330;-1.180;2023-04-08T11:11:12;9.83;;;8.90;;
14326;SDS011;7247;53.330;-1.180;2023-04-08T11:13:40;9.00;;;8.30;;
14326;SDS011;7247;53.330;-1.180;2023-04-08T11:16:07;8.57;;;7.77;;
14326;SDS011;7247;53.330;-1.180;2023-04-08T11:18:34;7.97;;;7.27;;
14326;SDS011;7247;53.330;-1.180;2023-04-08T11:21:00;8.37;;;7.60;;
14326;SDS011;7247;53.330;-1.180;2023-04-08T11:23:28;8.03;;;7.27;;
14326;SDS011;7247;53.330;-1.180;2023-04-08T11:25:55;9.83;;;8.33;;
14326;SDS011;7247;53.330;-1.180;2023-04-08T11:28:21;8.37;;;7.57;;
14326;SDS011;7247;53.330;-1.180;2023-04-08T11:30:48;8.07;;;7.27;;
14326;SDS011;7247;53.330;-1.180;2023-04-08T11:33:14;8.67;;;7.80;;
14326;SDS011;7247;53.330;-1.180;2023-04-08T11:35:41;8.13;;;7.43;;
14326;SDS011;7247;53.330;-1.180;2023-04-08T11:38:08;8.47;;;7.47;;
14326;SDS011;7247;53.330;-1.180;2023-04-08T11:40:36;8.13;;;7.37;;
14326;SDS011;7247;53.330;-1.180;2023-04-08T11:43:07;8.25;;;7.45;;
14326;SDS011;7247;53.330;-1.180;2023-04-08T11:45:36;8.00;;;7.30;;
14326;SDS011;7247;53.330;-1.180;2023-04-08T11:48:07;9.15;;;7.90;;
14326;SDS011;7247;53.330;-1.180;2023-04-08T11:50:33;8.52;;;7.82;;
14326;SDS011;7247;53.330;-1.180;2023-04-08T11:53:00;8.30;;;7.50;;
14326;SDS011;7247;53.330;-1.180;2023-04-08T11:55:27;8.00;;;7.30;;
14326;SDS011;7247;53.330;-1.180;2023-04-08T11:57:55;7.32;;;6.70;;
14326;SDS011;7247;53.330;-1.180;2023-04-08T12:00:22;7.50;;;6.80;;
14326;SDS011;7247;53.330;-1.180;2023-04-08T12:02:49;7.70;;;6.90;;
14326;SDS011;7247;53.330;-1.180;2023-04-08T12:05:16;7.72;;;7.00;;
14326;SDS011;7247;53.330;-1.180;2023-04-08T12:07:43;8.02;;;6.82;;
14326;SDS011;7247;53.330;-1.180;2023-04-08T12:10:09;7.65;;;6.88;;
14326;SDS011;7247;53.330;-1.180;2023-04-08T12:12:36;7.40;;;6.60;;
14326;SDS011;7247;53.330;-1.180;2023-04-08T12:15:04;8.98;;;7.30;;
14326;SDS011;7247;53.330;-1.180;2023-04-08T12:17:31;6.90;;;6.22;;
14326;SDS011;7247;53.330;-1.180;2023-04-08T12:19:57;7.10;;;6.40;;
14326;SDS011;7247;53.330;-1.180;2023-04-08T12:22:24;8.18;;;7.40;;
14326;SDS011;7247;53.330;-1.180;2023-04-08T12:24:51;7.85;;;6.90;;
14326;SDS011;7247;53.330;-1.180;2023-04-08T12:27:17;7.25;;;6.50;;
14326;SDS011;7247;53.330;-1.180;2023-04-08T12:29:43;7.10;;;6.40;;
14326;SDS011;7247;53.330;-1.180;2023-04-08T12:32:11;7.63;;;6.82;;
14326;SDS011;7247;53.330;-1.180;2023-04-08T12:34:39;6.93;;;6.25;;
14326;SDS011;7247;53.330;-1.180;2023-04-08T12:37:05;6.22;;;5.63;;
14326;SDS011;7247;53.330;-1.180;2023-04-08T12:39:31;6.40;;;5.80;;
14326;SDS011;7247;53.330;-1.180;2023-04-08T12:41:58;7.13;;;5.90;;
14326;SDS011;7247;53.330;-1.180;2023-04-08T12:44:24;9.60;;;5.93;;
14326;SDS011;7247;53.330;-1.180;2023-04-08T12:46:51;7.00;;;6.30;;
14326;SDS011;7247;53.330;-1.180;2023-04-08T12:49:18;6.20;;;5.60;;
14326;SDS011;7247;53.330;-1.180;2023-04-08T12:51:45;7.53;;;5.90;;
14326;SDS011;7247;53.330;-1.180;2023-04-08T12:54:11;7.32;;;6.30;;
14326;SDS011;7247;53.330;-1.180;2023-04-08T12:56:38;7.10;;;6.13;;
14326;SDS011;7247;53.330;-1.180;2023-04-08T12:59:04;6.53;;;5.53;;
14326;SDS011;7247;53.330;-1.180;2023-04-08T13:01:30;6.78;;;4.70;;
14326;SDS011;7247;53.330;-1.180;2023-04-08T13:03:57;5.97;;;5.05;;
14326;SDS011;7247;53.330;-1.180;2023-04-08T13:06:25;5.50;;;4.60;;
14326;SDS011;7247;53.330;-1.180;2023-04-08T13:08:52;5.20;;;3.95;;
14326;SDS011;7247;53.330;-1.180;2023-04-08T13:11:18;6.30;;;4.43;;
14326;SDS011;7247;53.330;-1.180;2023-04-08T13:13:45;8.30;;;5.50;;
14326;SDS011;7247;53.330;-1.180;2023-04-08T13:16:11;6.90;;;6.07;;
14326;SDS011;7247;53.330;-1.180;2023-04-08T13:18:39;8.30;;;6.78;;
14326;SDS011;7247;53.330;-1.180;2023-04-08T13:21:06;7.27;;;6.57;;
14326;SDS011;7247;53.330;-1.180;2023-04-08T13:23:34;6.88;;;6.18;;
14326;SDS011;7247;53.330;-1.180;2023-04-08T13:26:00;7.10;;;6.40;;
14326;SDS011;7247;53.330;-1.180;2023-04-08T13:28:27;7.45;;;6.75;;
14326;SDS011;7247;53.330;-1.180;2023-04-08T13:30:53;7.20;;;6.60;;
14326;SDS011;7247;53.330;-1.180;2023-04-08T13:33:20;7.82;;;6.20;;
14326;SDS011;7247;53.330;-1.180;2023-04-08T13:35:47;8.13;;;6.90;;
14326;SDS011;7247;53.330;-1.180;2023-04-08T13:38:13;6.65;;;6.05;;
14326;SDS011;7247;53.330;-1.180;2023-04-08T13:40:41;6.60;;;6.00;;
14326;SDS011;7247;53.330;-1.180;2023-04-08T13:43:07;6.97;;;6.28;;
14326;SDS011;7247;53.330;-1.180;2023-04-08T13:45:34;6.97;;;6.37;;
14326;SDS011;7247;53.330;-1.180;2023-04-08T13:48:00;6.70;;;6.13;;
14326;SDS011;7247;53.330;-1.180;2023-04-08T13:50:27;6.05;;;5.50;;
14326;SDS011;7247;53.330;-1.180;2023-04-08T13:52:53;6.72;;;5.10;;
14326;SDS011;7247;53.330;-1.180;2023-04-08T13:55:21;6.30;;;5.32;;
14326;SDS011;7247;53.330;-1.180;2023-04-08T13:57:49;5.70;;;5.00;;
14326;SDS011;7247;53.330;-1.180;2023-04-08T14:00:15;6.30;;;5.43;;
14326;SDS011;7247;53.330;-1.180;2023-04-08T14:02:41;5.95;;;5.35;;
14326;SDS011;7247;53.330;-1.180;2023-04-08T14:05:08;7.05;;;5.72;;
14326;SDS011;7247;53.330;-1.180;2023-04-08T14:07:34;6.63;;;5.72;;
14326;SDS011;7247;53.330;-1.180;2023-04-08T14:10:01;8.00;;;6.18;;
14326;SDS011;7247;53.330;-1.180;2023-04-08T14:12:27;6.90;;;5.85;;
14326;SDS011;7247;53.330;-1.180;2023-04-08T14:14:55;6.50;;;5.90;;
14326;SDS011;7247;53.330;-1.180;2023-04-08T14:17:21;6.53;;;5.68;;
14326;SDS011;7247;53.330;-1.180;2023-04-08T14:19:48;6.05;;;5.45;;
14326;SDS011;7247;53.330;-1.180;2023-04-08T14:22:15;6.47;;;5.88;;
14326;SDS011;7247;53.330;-1.180;2023-04-08T14:24:43;7.07;;;5.90;;
14326;SDS011;7247;53.330;-1.180;2023-04-08T14:27:09;7.13;;;6.43;;
14326;SDS011;7247;53.330;-1.180;2023-04-08T14:29:35;7.35;;;6.65;;
14326;SDS011;7247;53.330;-1.180;2023-04-08T14:32:03;7.25;;;6.28;;
14326;SDS011;7247;53.330;-1.180;2023-04-08T14:34:30;6.82;;;6.22;;